• Join FlightAware (Why Join?)
  • Login
  • US Flag 
Gobble Gobble! 
12:47PM EST


 

Airport Tracker/Info


-or-


 

Live Flight TrackerFlight Track Log ✈ JUS327 ✈ 12-Apr-2013 ✈ KTCL - KLRD

Flight Track Log - Related Links

Times and Time Zones

All times are in EDT time to prevent confusion due to time zone crossing. See the JUS327 flight status page for this flight to view local times or setup timezone preferences in your user account.

Time Position Orientation Groundspeed Altitude Reporting Facility
EDT Latitude Longitude Course Direction KTS MPH feet Rate Location/Type
06:56PM 33.1497 -87.6786 217° Southwest 203 234 4,300  Level Atlanta Center
06:57PM 33.1261 -87.7000 217° Southwest 236 272 5,000 540 Climbing Atlanta Center
06:57PM 33.0983 -87.7258 218° Southwest 259 298 4,900 120 Descending Atlanta Center
06:58PM 33.0339 -87.7975 223° Southwest 268 308 5,300 2,280 Climbing Memphis Center
06:59PM 32.9936 -87.8803 240° Southwest 278 320 9,800 2,940 Climbing Memphis Center
07:00PM 32.9411 -87.9661 234° Southwest 299 344 11,300 2,100 Climbing Memphis Center
07:01PM 32.8844 -88.0542 233° Southwest 326 375 14,000 2,520 Climbing Memphis Center
07:02PM 32.8253 -88.1422 231° Southwest 342 394 16,400 2,220 Climbing Memphis Center
07:03PM 32.7664 -88.2325 232° Southwest 349 402 18,500 1,920 Climbing Memphis Center
07:04PM 32.7033 -88.3231 230° Southwest 349 402 20,300 1,680 Climbing Memphis Center
07:05PM 32.6442 -88.4133 232° Southwest 354 407 21,900 1,560 Climbing Memphis Center
07:06PM 32.5831 -88.5058 232° Southwest 359 413 23,500 1,500 Climbing Memphis Center
07:07PM 32.5281 -88.6103 238° Southwest 370 426 24,900 1,380 Climbing Memphis Center
07:08PM 32.4942 -88.7244 251° West 370 426 26,300 1,200 Climbing Memphis Center
07:09PM 32.4517 -88.8383 246° West 375 432 27,300 1,140 Climbing Memphis Center
07:10PM 32.4031 -88.9500 243° Southwest 380 437 28,700 1,500 Climbing Memphis Center
07:11PM 32.3583 -89.0611 245° Southwest 385 443 30,300 1,560 Climbing Memphis Center
07:12PM 32.3156 -89.1700 245° Southwest 385 443 31,800 1,500 Climbing Memphis Center
07:13PM 32.2706 -89.2786 244° Southwest 379 436 33,400 1,080 Climbing Memphis Center
07:14PM 32.2275 -89.3847 244° Southwest 373 429 34,000 300 Climbing Memphis Center
07:15PM 32.1803 -89.4883 242° Southwest 368 423 34,000  Level Memphis Center
07:16PM 32.1372 -89.5967 245° Southwest 368 423 34,000  Level Memphis Center
07:17PM 32.0939 -89.7050 245° Southwest 362 417 34,000  Level Memphis Center
07:18PM 32.0506 -89.8133 245° Southwest 362 417 34,000  Level Memphis Center
07:19PM 32.0053 -89.9189 243° Southwest 362 417 34,000  Level Memphis Center
07:20PM 31.9594 -90.0269 243° Southwest 362 417 34,000 -60 Level Memphis Center
07:22PM 31.8767 -90.2311 245° Southwest 370 426 33,900 -60 Descending Houston Center
07:23PM 31.8322 -90.3378 244° Southwest 367 422 33,900  Level Houston Center
07:24PM 31.7864 -90.4444 243° Southwest 367 422 33,900  Level Houston Center
07:25PM 31.7325 -90.5717 244° Southwest 367 422 33,900  Level Houston Center
07:26PM 31.6875 -90.6800 244° Southwest 372 428 33,900  Level Houston Center
07:27PM 31.6433 -90.7858 244° Southwest 367 422 33,900  Level Houston Center
07:28PM 31.5989 -90.8942 244° Southwest 370 426 33,900  Level Houston Center
07:29PM 31.5528 -91.0025 243° Southwest 373 429 33,900  Level Houston Center
07:31PM 31.5025 -91.1153 242° Southwest 375 432 34,000  Climbing Houston Center
07:32PM 31.4569 -91.2247 244° Southwest 375 432 34,000  Level Houston Center
07:33PM 31.4019 -91.3547 244° Southwest 374 430 34,000  Level Houston Center
07:34PM 31.3547 -91.4639 243° Southwest 376 433 34,000  Level Houston Center
07:35PM 31.3072 -91.5719 243° Southwest 375 432 34,000  Level Houston Center
07:36PM 31.2597 -91.6808 243° Southwest 376 433 34,000  Level Houston Center
07:37PM 31.2125 -91.7897 243° Southwest 376 433 34,000  Level Houston Center
07:38PM 31.1650 -91.8989 243° Southwest 376 433 34,000  Level Houston Center
07:39PM 31.1089 -92.0306 244° Southwest 377 434 34,000 -60 Level Houston Center
07:40PM 31.0664 -92.1281 243° Southwest 380 437 33,900 -60 Descending Houston Center
07:41PM 31.0178 -92.2367 242° Southwest 380 437 33,900  Level Houston Center
07:42PM 30.9622 -92.3619 243° Southwest 383 441 34,000  Climbing Houston Center
07:43PM 30.9089 -92.4700 240° Southwest 382 440 34,000  Level Houston Center
07:44PM 30.8603 -92.5825 243° Southwest 386 444 34,000  Level Houston Center
07:45PM 30.8150 -92.6956 245° Southwest 384 442 34,000  Level Houston Center
07:46PM 30.7664 -92.8075 243° Southwest 386 444 34,000 -60 Level Houston Center
07:47PM 30.7139 -92.9231 242° Southwest 390 449 33,900 -60 Descending Houston Center
07:48PM 30.6558 -93.0578 243° Southwest 390 449 33,900  Level Houston Center
07:49PM 30.6072 -93.1697 243° Southwest 391 450 33,900  Level Houston Center
07:50PM 30.5553 -93.2803 241° Southwest 391 450 33,900  Level Houston Center
07:51PM 30.5067 -93.3919 243° Southwest 392 451 33,900  Level Houston Center
07:52PM 30.4564 -93.5025 242° Southwest 391 450 34,000  Climbing Houston Center
07:53PM 30.3983 -93.6311 242° Southwest 392 451 33,900 -60 Descending Houston Center
07:54PM 30.3481 -93.7431 243° Southwest 394 453 33,900  Level Houston Center
07:55PM 30.2967 -93.8547 242° Southwest 395 455 33,900  Level Houston Center
07:56PM 30.2456 -93.9656 242° Southwest 393 452 33,900  Level Houston Center
07:58PM 30.1925 -94.0845 243° Southwest  Level FlightAware Approximate
07:58PM 30.1317 -94.2131 243° Southwest 397 457 33,900  Level Houston Center
07:59PM 30.0803 -94.3253 242° Southwest 396 456 33,900  Level Houston Center
08:00PM 30.0292 -94.4375 242° Southwest 395 455 33,900  Level Houston Center
08:02PM 29.9772 -94.5439 241° Southwest 396 456 34,000  Climbing Houston Center
08:03PM 29.9247 -94.6558 242° Southwest 397 457 34,000  Level Houston Center
08:04PM 29.8625 -94.7903 242° Southwest 397 457 34,000  Level Houston Center
08:05PM 29.8103 -94.9031 242° Southwest 400 460 34,000  Level Houston Center
08:06PM 29.7581 -95.0144 242° Southwest 398 458 34,000 -60 Level Houston Center
08:07PM 29.7042 -95.1331 242° Southwest 400 460 33,900 -60 Descending Houston Center
08:08PM 29.6508 -95.2450 241° Southwest 401 461 33,900  Level Houston Center
08:09PM 29.5908 -95.3650 240° Southwest 401 461 34,000  Climbing Houston Center
08:10PM 29.5375 -95.4758 241° Southwest 399 459 34,000  Level Houston Center
08:11PM 29.4856 -95.5872 242° Southwest 397 457 34,000  Level Houston Center
08:12PM 29.4322 -95.6989 241° Southwest 399 459 34,000  Level Houston Center
08:13PM 29.3783 -95.8100 241° Southwest 399 459 34,000  Level Houston Center
08:14PM 29.3136 -95.9428 241° Southwest 398 458 34,000 -60 Level Houston Center
08:15PM 29.2681 -96.0381 241° Southwest 400 460 33,900 -60 Descending Houston Center
08:16PM 29.2031 -96.1719 241° Southwest 400 460 33,900  Level Houston Center
08:17PM 29.1489 -96.2831 241° Southwest 399 459 33,900  Level Houston Center
08:18PM 29.0950 -96.3939 241° Southwest 399 459 33,900  Level Houston Center
08:19PM 29.0403 -96.5053 241° Southwest 399 459 33,900  Level Houston Center
08:20PM 28.9856 -96.6186 241° Southwest 402 463 33,900  Level Houston Center
08:21PM 28.9317 -96.7300 241° Southwest 401 461 33,900  Level Houston Center
08:22PM 28.8775 -96.8417 241° Southwest 399 459 33,900  Level Houston Center
08:23PM 28.8219 -96.9519 240° Southwest 399 459 33,900  Level Houston Center
08:24PM 28.7558 -97.0853 241° Southwest 401 461 33,900  Level Houston Center
08:25PM 28.7006 -97.1964 240° Southwest 402 463 33,900  Level Houston Center
08:26PM 28.6444 -97.3083 240° Southwest 404 465 33,900  Level Houston Center
08:27PM 28.5886 -97.4214 241° Southwest 408 470 33,900  Level Houston Center
08:28PM 28.5339 -97.5336 241° Southwest 406 467 33,900  Level Houston Center
08:29PM 28.4769 -97.6453 240° Southwest 407 468 33,900 -60 Level Houston Center
08:30PM 28.4208 -97.7583 241° Southwest 409 471 33,800 -540 Descending Houston Center
08:31PM 28.3508 -97.8925 239° Southwest 414 476 32,900 -840 Descending Houston Center
08:32PM 28.2914 -98.0075 240° Southwest 420 483 32,100 -780 Descending Houston Center
08:33PM 28.2353 -98.1183 240° Southwest 423 487 31,300 -1,200 Descending Houston Center
08:34PM 28.1761 -98.2350 240° Southwest 427 491 29,700 -1,860 Descending Houston Center
08:36PM 28.1164 -98.3519 240° Southwest 429 494 27,500 -2,400 Descending Houston Center
08:37PM 28.0472 -98.4906 241° Southwest 425 489 24,800 -2,640 Descending Houston Center
08:38PM 27.9972 -98.5944 241° Southwest 385 443 22,100 -2,640 Descending Houston Center
08:39PM 27.9494 -98.6889 240° Southwest 353 406 19,400 -2,700 Descending Houston Center
08:40PM 27.9019 -98.7767 239° Southwest 333 383 16,600 -2,880 Descending Houston Center
08:41PM 27.8572 -98.8614 239° Southwest 319 367 13,500 -2,940 Descending Houston Center
08:42PM 27.8103 -98.9467 238° Southwest 321 369 10,600 -2,340 Descending Houston Center
08:43PM 27.7644 -99.0408 241° Southwest 298 343 8,700 -1,980 Descending Houston Center
08:44PM 27.7261 -99.1136 239° Southwest 281 323 6,600 -2,040 Descending Houston Center
08:45PM 27.6881 -99.1875 240° Southwest 276 318 4,500 -1,680 Descending Houston Center
08:46PM 27.6506 -99.2603 240° Southwest 274 315 3,200 -960 Descending Houston Center
08:47PM 27.6353 -99.3344 257° West 259 298 2,600 -360 Descending Houston Center
08:48PM 27.6328 -99.4250 268° West 249 287 2,500 -540 Descending Houston Center
08:49PM 27.6017 -99.4600 225° Southwest 204 235 1,600 -900 Descending Houston Center
08:50PM 27.5686 -99.4617 183° South 151 174 700 -900 Descending Houston Center